Terminal Aerodrome Forecast
Issued by NWS

Home | Current Version | Previous Version | Text Only | Print | Product List | Glossary Off
Versions: 1 2 3 4 5 6 7 8 9 10 11 12 13 14 15 16 17

000
FTUS43 KMPX 181400 AAA
TAFRWF
TAF AMD
KRWF 181449Z 1815/1912 28008KT P6SM SCT110
      TEMPO 1819/1822 3SM TSRA BR BKN025CB
     FM182200 27010KT P6SM VCSH BKN060
     FM190000 29006KT P6SM SCT100
      TEMPO 1908/1912 2SM BR=

USA.gov is the U.S. government's official web portal to all federal, state and local government web resources and services.